Wattsburg, Pennsylvania
Current Conditions -  °F | °C
As of 8:51 PM on Tuesday 25 Nov 2014 (Local Time) from KERI Reporting Station
Overcast Overcast  
Wind Chill: -2°   Ceiling: 2400
Heat Index:   Visibility: 10mi
Dew Point: -4°   Wind: 9mph
Humidity: 64%   Direction: 240°WSW
Pressure: 30.18"   Gusts: NA
Location:  42°N, 79.81°W
Report Text: KERI 260151Z 24008KT 10SM OVC024 02/M04 A3018 RMK AO2 SLP229 T00171044
Loading
Personal Weather Stations






























Interactive Weather Map New forecast layout! Learn more

10-Day Weather Forecast

Advertisements
Track Severe Weather on mobile